createdAt,value
2022-09-27T00:01:06.988Z,79.45
2022-09-27T00:03:34.190Z,79.47
2022-09-27T00:06:15.300Z,79.42
2022-09-27T00:08:43.193Z,79.45
2022-09-27T00:11:23.327Z,79.38
2022-09-27T00:13:50.047Z,79.46
2022-09-27T00:16:17.046Z,79.46
2022-09-27T00:18:43.985Z,79.40
2022-09-27T00:21:12.878Z,79.55
2022-09-27T00:23:40.543Z,79.60
2022-09-27T00:26:10.656Z,79.68
2022-09-27T00:28:37.864Z,79.66
2022-09-27T00:31:05.268Z,79.70
2022-09-27T00:33:32.180Z,79.85
2022-09-27T00:36:06.673Z,79.86
2022-09-27T00:38:33.388Z,79.98
2022-09-27T00:41:00.212Z,80.08
2022-09-27T00:43:27.112Z,80.25
2022-09-27T00:45:57.434Z,80.21
2022-09-27T00:48:28.493Z,80.21
2022-09-27T00:50:59.346Z,80.18
2022-09-27T00:53:34.523Z,80.22
2022-09-27T00:56:06.045Z,80.34
2022-09-27T00:58:44.717Z,80.23
2022-09-27T01:01:13.846Z,80.22
2022-09-27T01:03:54.983Z,80.25
2022-09-27T01:06:22.647Z,80.46
2022-09-27T01:08:49.693Z,80.81
2022-09-27T01:11:39.849Z,80.91
2022-09-27T01:14:33.071Z,80.90
2022-09-27T01:17:17.906Z,80.90
2022-09-27T01:20:09.426Z,80.91
2022-09-27T01:22:42.358Z,80.87
2022-09-27T01:25:33.868Z,80.97
2022-09-27T01:28:16.170Z,81.00
2022-09-27T01:30:59.435Z,81.14
2022-09-27T01:33:39.834Z,81.13
2022-09-27T01:36:25.352Z,81.26
2022-09-27T01:39:06.932Z,81.45
2022-09-27T01:41:40.461Z,81.43
2022-09-27T01:44:16.421Z,81.41
2022-09-27T01:46:48.263Z,81.24
2022-09-27T01:49:26.685Z,81.26
2022-09-27T01:51:58.909Z,81.06
2022-09-27T01:54:32.921Z,81.10
2022-09-27T01:57:01.849Z,81.05
2022-09-27T01:59:35.280Z,81.08
2022-09-27T02:02:08.463Z,81.06
2022-09-27T02:04:38.662Z,80.90
2022-09-27T02:07:15.847Z,80.82
2022-09-27T02:09:51.526Z,80.99
2022-09-27T02:12:24.104Z,80.96
2022-09-27T02:14:57.888Z,80.96
2022-09-27T02:17:31.465Z,80.93
2022-09-27T02:20:13.685Z,80.73
2022-09-27T02:23:10.858Z,80.81
2022-09-27T02:25:47.181Z,80.78
2022-09-27T02:28:35.546Z,80.68
2022-09-27T02:31:02.567Z,80.70
2022-09-27T02:33:41.840Z,80.76
2022-09-27T02:36:09.615Z,80.66
2022-09-27T02:38:36.823Z,80.78
2022-09-27T02:41:03.723Z,80.81
2022-09-27T02:43:33.439Z,80.59
2022-09-27T02:46:00.222Z,80.54
2022-09-27T02:49:04.397Z,80.68
2022-09-27T02:51:52.025Z,80.59
2022-09-27T02:54:21.786Z,80.61
2022-09-27T02:56:54.773Z,80.58
2022-09-27T02:59:34.267Z,80.51
2022-09-27T03:02:30.228Z,80.61
2022-09-27T03:05:05.825Z,80.63
2022-09-27T03:07:32.716Z,80.61
2022-09-27T03:09:59.509Z,80.50
2022-09-27T03:12:26.694Z,80.42
2022-09-27T03:14:58.930Z,80.40
2022-09-27T03:17:26.256Z,80.20
2022-09-27T03:19:53.350Z,80.11
2022-09-27T03:22:20.114Z,80.09
2022-09-27T03:24:47.016Z,80.48
2022-09-27T03:27:13.841Z,81.11
2022-09-27T03:29:40.655Z,81.53
2022-09-27T03:32:07.694Z,81.38
2022-09-27T03:34:34.474Z,81.25
2022-09-27T03:37:02.084Z,80.99
2022-09-27T03:39:28.893Z,80.81
2022-09-27T03:41:55.769Z,80.64
2022-09-27T03:44:22.590Z,80.47
2022-09-27T03:46:49.452Z,80.30
2022-09-27T03:49:16.307Z,80.18
2022-09-27T03:51:43.394Z,79.97
2022-09-27T03:54:10.642Z,79.83
2022-09-27T03:56:37.629Z,79.78
2022-09-27T03:59:04.526Z,79.73
2022-09-27T04:01:31.492Z,79.63
2022-09-27T04:03:58.316Z,79.57
2022-09-27T04:06:25.631Z,79.52
2022-09-27T04:08:52.612Z,79.48
2022-09-27T04:11:19.418Z,79.35
2022-09-27T04:13:48.880Z,79.28
2022-09-27T04:16:16.661Z,79.16
2022-09-27T04:18:43.963Z,79.11
2022-09-27T04:21:11.013Z,79.08
2022-09-27T04:23:37.956Z,79.04
2022-09-27T04:26:04.908Z,79.01
2022-09-27T04:28:32.235Z,78.90
2022-09-27T04:30:59.550Z,78.90
2022-09-27T04:33:26.504Z,78.97
2022-09-27T04:36:11.964Z,78.95
2022-09-27T04:38:38.896Z,78.93
2022-09-27T04:41:05.959Z,78.92
2022-09-27T04:43:32.845Z,78.89
2022-09-27T04:45:59.836Z,78.86
2022-09-27T04:48:26.591Z,78.96
2022-09-27T04:51:02.335Z,78.91
2022-09-27T04:53:29.997Z,78.85
2022-09-27T04:55:57.242Z,78.82
2022-09-27T04:58:24.193Z,78.84
2022-09-27T05:00:55.906Z,78.84
2022-09-27T05:03:23.330Z,78.83
2022-09-27T05:05:50.097Z,78.82
2022-09-27T05:08:16.855Z,78.82
2022-09-27T05:10:43.679Z,78.79
2022-09-27T05:13:10.484Z,78.70
2022-09-27T05:15:37.441Z,78.70
2022-09-27T05:18:04.219Z,78.67
2022-09-27T05:20:31.079Z,78.68
2022-09-27T05:22:58.379Z,78.67
2022-09-27T05:25:25.325Z,78.70
2022-09-27T05:27:52.478Z,78.75
2022-09-27T05:30:19.401Z,78.79
2022-09-27T05:32:50.285Z,78.84
2022-09-27T05:35:19.366Z,78.96
2022-09-27T05:37:57.814Z,78.98
2022-09-27T05:40:42.013Z,79.03
2022-09-27T05:43:09.614Z,79.11
2022-09-27T05:45:36.831Z,79.20
2022-09-27T05:48:05.298Z,79.20
2022-09-27T05:50:32.731Z,79.29
2022-09-27T05:52:59.488Z,79.84
2022-09-27T05:55:26.256Z,80.82
2022-09-27T05:57:57.597Z,81.32
2022-09-27T06:00:25.978Z,81.75
2022-09-27T06:03:03.829Z,81.97
2022-09-27T06:05:35.359Z,82.05
2022-09-27T06:08:04.707Z,81.90
2022-09-27T06:10:32.836Z,81.97
2022-09-27T06:13:05.550Z,82.06
2022-09-27T06:15:33.460Z,82.12
2022-09-27T06:18:11.294Z,81.97
2022-09-27T06:20:39.812Z,81.59
2022-09-27T06:23:08.914Z,81.28
2022-09-27T06:25:36.267Z,80.99
2022-09-27T06:28:04.200Z,81.04
2022-09-27T06:30:32.188Z,81.33
2022-09-27T06:33:00.999Z,81.26
2022-09-27T06:35:31.208Z,81.53
2022-09-27T06:37:58.206Z,81.85
2022-09-27T06:40:26.491Z,82.05
2022-09-27T06:42:53.681Z,81.71
2022-09-27T06:45:20.454Z,81.38
2022-09-27T06:47:47.330Z,81.73
2022-09-27T06:50:14.553Z,81.92
2022-09-27T06:52:48.547Z,82.11
2022-09-27T06:55:15.916Z,82.42
2022-09-27T06:58:01.340Z,82.69
2022-09-27T07:00:29.078Z,82.43
2022-09-27T07:03:01.241Z,82.05
2022-09-27T07:05:32.010Z,81.79
2022-09-27T07:07:59.403Z,81.47
2022-09-27T07:10:28.198Z,81.20
2022-09-27T07:12:55.750Z,81.21
2022-09-27T07:15:23.234Z,81.48
2022-09-27T07:18:00.020Z,81.46
2022-09-27T07:20:27.210Z,81.19
2022-09-27T07:22:53.943Z,80.92
2022-09-27T07:25:20.730Z,81.33
2022-09-27T07:27:47.521Z,81.60
2022-09-27T07:30:14.836Z,81.71
2022-09-27T07:32:42.186Z,81.05
2022-09-27T07:35:10.615Z,81.17
2022-09-27T07:37:38.280Z,81.54
2022-09-27T07:40:08.833Z,81.81
2022-09-27T07:42:41.328Z,82.11
2022-09-27T07:45:09.565Z,81.75
2022-09-27T07:47:39.219Z,81.75
2022-09-27T07:50:07.680Z,81.97
2022-09-27T07:52:45.786Z,82.16
2022-09-27T07:55:14.488Z,82.35
2022-09-27T07:57:41.611Z,82.31
2022-09-27T08:00:15.166Z,82.18
2022-09-27T08:02:43.115Z,82.37
2022-09-27T08:05:11.802Z,82.48
2022-09-27T08:07:39.620Z,82.42
2022-09-27T08:10:08.528Z,82.31
2022-09-27T08:12:35.660Z,82.09
2022-09-27T08:15:04.486Z,81.94
2022-09-27T08:17:32.457Z,82.26
2022-09-27T08:20:00.296Z,82.17
2022-09-27T08:22:27.079Z,82.21
2022-09-27T08:24:53.857Z,81.87
2022-09-27T08:27:20.657Z,81.73
2022-09-27T08:29:47.897Z,81.64
2022-09-27T08:32:20.800Z,81.46
2022-09-27T08:34:49.916Z,81.36
2022-09-27T08:37:16.753Z,81.69
2022-09-27T08:39:47.602Z,81.76
2022-09-27T08:42:43.126Z,81.80
2022-09-27T08:45:24.703Z,81.68
2022-09-27T08:48:00.285Z,81.06
2022-09-27T08:50:38.950Z,80.87
2022-09-27T08:53:31.139Z,80.61
2022-09-27T08:56:00.038Z,80.90
2022-09-27T08:58:35.811Z,80.88
2022-09-27T09:01:11.750Z,80.96
2022-09-27T09:03:43.975Z,80.72
2022-09-27T09:06:34.848Z,80.82
2022-09-27T09:09:07.752Z,81.02
2022-09-27T09:12:15.323Z,81.01
2022-09-27T09:14:50.981Z,81.10
2022-09-27T09:17:55.780Z,80.97
2022-09-27T09:20:25.435Z,81.19
2022-09-27T09:23:13.652Z,80.82
2022-09-27T09:25:52.564Z,81.00
2022-09-27T09:28:51.540Z,81.16
2022-09-27T09:31:27.490Z,80.98
2022-09-27T09:34:09.189Z,80.73
2022-09-27T09:36:44.946Z,80.81
2022-09-27T09:39:18.127Z,80.34
2022-09-27T09:42:06.828Z,80.01
2022-09-27T09:44:54.224Z,79.72
2022-09-27T09:47:44.350Z,79.56
2022-09-27T09:50:23.058Z,79.42
2022-09-27T09:52:56.403Z,79.54
2022-09-27T09:55:26.603Z,79.53
2022-09-27T09:58:02.153Z,79.47
2022-09-27T10:00:28.963Z,79.33
2022-09-27T10:02:59.340Z,79.27
2022-09-27T10:05:28.402Z,79.19
2022-09-27T10:07:58.895Z,79.36
2022-09-27T10:10:25.748Z,79.31
2022-09-27T10:12:52.827Z,79.28
2022-09-27T10:15:22.503Z,79.23
2022-09-27T10:17:53.616Z,79.33
2022-09-27T10:20:52.760Z,79.37
2022-09-27T10:23:22.721Z,79.52
2022-09-27T10:25:58.523Z,79.76
2022-09-27T10:28:46.064Z,80.05
2022-09-27T10:31:23.251Z,80.12
2022-09-27T10:33:57.484Z,80.22
2022-09-27T10:36:27.071Z,80.21
2022-09-27T10:39:01.908Z,80.23
2022-09-27T10:41:36.783Z,80.27
2022-09-27T10:44:15.914Z,80.22
2022-09-27T10:46:45.227Z,80.20
2022-09-27T10:49:33.921Z,80.17
2022-09-27T10:52:05.070Z,80.02
2022-09-27T10:54:37.246Z,79.94
2022-09-27T10:57:07.050Z,79.94
2022-09-27T10:59:36.873Z,79.86
2022-09-27T11:02:05.741Z,79.85
2022-09-27T11:04:35.497Z,79.85
2022-09-27T11:07:21.925Z,79.85
2022-09-27T11:09:54.768Z,79.84
2022-09-27T11:12:23.147Z,79.81
2022-09-27T11:14:55.908Z,79.69
2022-09-27T11:17:48.034Z,79.64
2022-09-27T11:20:16.740Z,79.53
2022-09-27T11:23:17.381Z,79.45
2022-09-27T11:26:15.377Z,79.41
2022-09-27T11:28:50.103Z,79.57
2022-09-27T11:31:55.094Z,79.54
2022-09-27T11:34:38.533Z,79.35
2022-09-27T11:37:26.766Z,79.39
2022-09-27T11:40:13.578Z,79.40
2022-09-27T11:43:11.928Z,79.35
2022-09-27T11:46:28.128Z,79.30
2022-09-27T11:49:19.942Z,79.48
2022-09-27T11:52:04.704Z,79.58
2022-09-27T11:54:59.074Z,79.70
2022-09-27T11:57:31.779Z,79.67
2022-09-27T12:00:21.217Z,79.74
2022-09-27T12:03:18.688Z,79.81
2022-09-27T12:06:04.847Z,79.80
2022-09-27T12:08:36.875Z,79.82
2022-09-27T12:11:15.464Z,79.79
2022-09-27T12:13:50.663Z,79.67
2022-09-27T12:16:20.238Z,79.66
2022-09-27T12:18:51.600Z,79.75
2022-09-27T12:21:19.876Z,79.79
2022-09-27T12:23:50.431Z,79.82
2022-09-27T12:26:40.234Z,79.90
2022-09-27T12:29:27.930Z,79.94
2022-09-27T12:32:06.175Z,79.94
2022-09-27T12:34:36.077Z,79.97
2022-09-27T12:37:15.077Z,80.07
2022-09-27T12:39:49.684Z,80.01
2022-09-27T12:42:32.622Z,79.97
2022-09-27T12:44:59.627Z,79.90
2022-09-27T12:47:57.201Z,79.95
2022-09-27T12:50:40.264Z,79.98
2022-09-27T12:53:24.209Z,79.99
2022-09-27T12:55:50.878Z,79.92
2022-09-27T12:58:42.217Z,79.70
2022-09-27T13:01:36.875Z,79.53
2022-09-27T13:04:10.654Z,79.53
2022-09-27T13:06:48.851Z,79.35
2022-09-27T13:09:15.692Z,79.17
2022-09-27T13:12:02.472Z,79.07
2022-09-27T13:14:34.539Z,78.95
2022-09-27T13:17:01.883Z,78.96
2022-09-27T13:19:43.575Z,79.05
2022-09-27T13:22:28.710Z,79.08
2022-09-27T13:24:55.620Z,78.97
2022-09-27T13:27:22.315Z,78.98
2022-09-27T13:29:52.496Z,79.02
2022-09-27T13:32:24.002Z,78.95
2022-09-27T13:34:57.029Z,78.87
2022-09-27T13:37:44.541Z,78.83
2022-09-27T13:40:15.326Z,78.70
2022-09-27T13:42:55.739Z,78.70
2022-09-27T13:45:36.193Z,78.87
2022-09-27T13:48:16.231Z,79.01
2022-09-27T13:50:45.962Z,79.03
2022-09-27T13:53:35.298Z,78.96
2022-09-27T13:56:02.666Z,78.93
2022-09-27T13:58:52.301Z,78.87
2022-09-27T14:01:28.565Z,78.91
2022-09-27T14:04:04.654Z,78.98
2022-09-27T14:06:37.051Z,78.99
2022-09-27T14:09:14.911Z,79.02
2022-09-27T14:11:44.219Z,79.13
2022-09-27T14:14:23.317Z,79.05
2022-09-27T14:16:50.747Z,78.89
2022-09-27T14:19:20.538Z,79.05
2022-09-27T14:21:47.607Z,79.18
2022-09-27T14:24:20.495Z,79.17
2022-09-27T14:26:48.933Z,79.18
2022-09-27T14:29:21.326Z,79.17
2022-09-27T14:32:09.324Z,79.14
2022-09-27T14:34:36.254Z,79.22
2022-09-27T14:37:22.782Z,79.15
2022-09-27T14:40:08.218Z,79.27
2022-09-27T14:42:37.005Z,79.56
2022-09-27T14:45:14.778Z,79.57
2022-09-27T14:47:50.236Z,79.56
2022-09-27T14:50:21.711Z,79.64
2022-09-27T14:52:49.973Z,79.87
2022-09-27T14:55:19.313Z,80.03
2022-09-27T14:57:50.690Z,79.92
2022-09-27T15:00:26.323Z,79.83
2022-09-27T15:02:55.490Z,79.89
2022-09-27T15:05:25.669Z,79.94
2022-09-27T15:07:53.305Z,80.01
2022-09-27T15:10:22.386Z,80.07
2022-09-27T15:12:54.303Z,80.02
2022-09-27T15:15:27.040Z,79.97
2022-09-27T15:17:53.949Z,79.99
2022-09-27T15:20:35.855Z,80.02
2022-09-27T15:23:05.008Z,80.13
2022-09-27T15:25:35.339Z,80.03
2022-09-27T15:28:06.581Z,79.58
2022-09-27T15:30:36.696Z,79.33
2022-09-27T15:33:04.593Z,79.44
2022-09-27T15:35:34.094Z,79.55
2022-09-27T15:38:13.521Z,79.33
2022-09-27T15:40:43.273Z,79.21
2022-09-27T15:43:20.106Z,79.46
2022-09-27T15:45:51.748Z,79.43
2022-09-27T15:48:20.695Z,79.55
2022-09-27T15:50:48.623Z,79.83
2022-09-27T15:53:34.208Z,79.73
2022-09-27T15:56:09.047Z,79.46
2022-09-27T15:58:36.958Z,79.53
2022-09-27T16:01:08.341Z,79.77
2022-09-27T16:03:35.568Z,79.75
2022-09-27T16:06:03.962Z,79.71
2022-09-27T16:08:30.852Z,79.88
2022-09-27T16:10:59.139Z,79.88
2022-09-27T16:13:31.865Z,79.73
2022-09-27T16:15:59.881Z,79.56
2022-09-27T16:18:30.302Z,79.50
2022-09-27T16:21:00.425Z,79.55
2022-09-27T16:23:27.197Z,79.55
2022-09-27T16:25:54.012Z,79.67
2022-09-27T16:28:20.867Z,79.64
2022-09-27T16:30:48.322Z,79.59
2022-09-27T16:33:15.407Z,79.47
2022-09-27T16:35:42.291Z,79.48
2022-09-27T16:38:09.348Z,79.51
2022-09-27T16:40:37.219Z,79.46
2022-09-27T16:43:07.355Z,79.40
2022-09-27T16:45:35.787Z,79.41
2022-09-27T16:48:02.591Z,79.45
2022-09-27T16:50:48.676Z,79.59
2022-09-27T16:53:15.562Z,79.74
2022-09-27T16:55:42.347Z,79.86
2022-09-27T16:58:09.222Z,80.04
2022-09-27T17:00:36.111Z,80.10
2022-09-27T17:03:02.993Z,80.14
2022-09-27T17:05:29.764Z,80.20
2022-09-27T17:07:56.645Z,80.31
2022-09-27T17:10:23.722Z,80.40
2022-09-27T17:12:50.632Z,80.41
2022-09-27T17:15:17.983Z,80.47
2022-09-27T17:17:49.078Z,80.47
2022-09-27T17:20:16.647Z,80.47
2022-09-27T17:22:43.396Z,80.46
2022-09-27T17:25:10.382Z,80.40
2022-09-27T17:27:37.198Z,80.38
2022-09-27T17:30:05.219Z,80.42
2022-09-27T17:32:31.963Z,80.47
2022-09-27T17:34:58.930Z,80.58
2022-09-27T17:37:26.067Z,80.55
2022-09-27T17:39:52.895Z,80.49
2022-09-27T17:42:19.681Z,80.46
2022-09-27T17:44:46.622Z,80.38
2022-09-27T17:47:32.088Z,80.35
2022-09-27T17:50:17.182Z,80.32
2022-09-27T17:52:44.177Z,80.42
2022-09-27T17:55:11.212Z,80.61
2022-09-27T17:57:37.978Z,80.52
2022-09-27T18:00:05.831Z,80.56
2022-09-27T18:02:32.747Z,80.65
2022-09-27T18:04:59.912Z,80.70
2022-09-27T18:07:27.606Z,80.68
2022-09-27T18:09:54.409Z,80.59
2022-09-27T18:12:21.823Z,80.59
2022-09-27T18:14:49.540Z,80.56
2022-09-27T18:17:16.831Z,80.45
2022-09-27T18:19:43.928Z,80.34
2022-09-27T18:22:10.756Z,80.57
2022-09-27T18:24:37.495Z,80.58
2022-09-27T18:27:04.683Z,80.57
2022-09-27T18:29:31.529Z,80.64
2022-09-27T18:31:58.399Z,80.75
2022-09-27T18:34:25.366Z,80.83
2022-09-27T18:36:52.165Z,80.88
2022-09-27T18:39:19.675Z,80.82
2022-09-27T18:41:50.771Z,80.90
2022-09-27T18:44:18.720Z,80.82
2022-09-27T18:46:46.384Z,80.80
2022-09-27T18:49:14.413Z,80.80
2022-09-27T18:51:47.563Z,80.73
2022-09-27T18:54:20.360Z,80.73
2022-09-27T18:56:50.228Z,80.36
2022-09-27T18:59:17.899Z,80.47
2022-09-27T19:01:46.110Z,80.63
2022-09-27T19:04:21.491Z,80.51
2022-09-27T19:06:51.617Z,80.68
2022-09-27T19:09:19.042Z,80.66
2022-09-27T19:11:46.088Z,80.70
2022-09-27T19:14:18.706Z,80.72
2022-09-27T19:16:47.717Z,80.73
2022-09-27T19:19:19.596Z,80.64
2022-09-27T19:21:47.802Z,80.70
2022-09-27T19:24:15.587Z,80.84
2022-09-27T19:26:43.218Z,81.01
2022-09-27T19:29:10.759Z,81.05
2022-09-27T19:31:38.062Z,80.93
2022-09-27T19:34:05.184Z,80.88
2022-09-27T19:36:32.188Z,80.99
2022-09-27T19:39:00.312Z,81.05
2022-09-27T19:41:27.632Z,81.10
2022-09-27T19:43:55.854Z,81.15
2022-09-27T19:46:23.787Z,81.08
2022-09-27T19:48:51.685Z,81.07
2022-09-27T19:51:21.249Z,81.09
2022-09-27T19:53:48.495Z,81.13
2022-09-27T19:56:15.398Z,81.14
2022-09-27T19:58:42.769Z,81.10
2022-09-27T20:01:22.896Z,81.04
2022-09-27T20:03:52.552Z,81.03
2022-09-27T20:06:21.778Z,80.95
2022-09-27T20:08:49.149Z,80.96
2022-09-27T20:11:18.274Z,80.95
2022-09-27T20:13:45.108Z,81.06
2022-09-27T20:16:20.675Z,81.04
2022-09-27T20:18:49.653Z,80.87
2022-09-27T20:21:18.191Z,80.48
2022-09-27T20:23:49.939Z,80.50
2022-09-27T20:26:18.960Z,80.45
2022-09-27T20:28:48.178Z,80.42
2022-09-27T20:31:17.556Z,80.34
2022-09-27T20:33:46.690Z,80.34
2022-09-27T20:36:15.774Z,80.36
2022-09-27T20:38:44.578Z,80.46
2022-09-27T20:41:13.134Z,80.51
2022-09-27T20:43:40.335Z,80.49
2022-09-27T20:46:09.819Z,80.39
2022-09-27T20:48:38.551Z,80.37
2022-09-27T20:51:06.582Z,80.42
2022-09-27T20:53:34.246Z,80.35
2022-09-27T20:56:04.987Z,80.29
2022-09-27T20:58:32.590Z,80.28
2022-09-27T21:01:06.786Z,80.32
2022-09-27T21:03:34.613Z,80.44
2022-09-27T21:06:02.356Z,80.48
2022-09-27T21:08:31.136Z,80.32
2022-09-27T21:11:07.741Z,80.29
2022-09-27T21:13:35.058Z,80.33
2022-09-27T21:16:03.810Z,80.33
2022-09-27T21:18:31.404Z,80.39
2022-09-27T21:21:06.548Z,80.37
2022-09-27T21:23:34.943Z,80.32
2022-09-27T21:26:11.191Z,80.36
2022-09-27T21:28:40.341Z,80.46
2022-09-27T21:31:22.557Z,80.60
2022-09-27T21:33:54.141Z,80.55
2022-09-27T21:36:22.957Z,80.40
2022-09-27T21:38:49.847Z,80.46
2022-09-27T21:41:17.300Z,80.67
2022-09-27T21:43:46.206Z,80.79
2022-09-27T21:46:18.271Z,80.91
2022-09-27T21:48:47.621Z,80.92
2022-09-27T21:51:18.876Z,80.95
2022-09-27T21:53:54.410Z,80.99
2022-09-27T21:56:22.549Z,81.17
2022-09-27T21:58:49.785Z,81.27
2022-09-27T22:01:22.589Z,81.28
2022-09-27T22:03:51.543Z,81.27
2022-09-27T22:06:23.833Z,81.28
2022-09-27T22:08:51.776Z,81.01
2022-09-27T22:11:24.470Z,80.74
2022-09-27T22:13:51.373Z,80.74
2022-09-27T22:16:20.625Z,80.67
2022-09-27T22:18:49.431Z,80.61
2022-09-27T22:21:22.735Z,80.57
2022-09-27T22:23:56.803Z,80.62
2022-09-27T22:26:25.668Z,80.57
2022-09-27T22:28:52.882Z,80.64
2022-09-27T22:31:20.732Z,80.76
2022-09-27T22:33:53.046Z,80.78
2022-09-27T22:36:20.574Z,80.87
2022-09-27T22:38:48.115Z,81.00
2022-09-27T22:41:16.120Z,81.18
2022-09-27T22:43:43.485Z,81.29
2022-09-27T22:46:10.711Z,81.35
2022-09-27T22:48:37.738Z,81.42
2022-09-27T22:51:05.444Z,81.46
2022-09-27T22:53:32.576Z,81.24
2022-09-27T22:56:04.872Z,81.20
2022-09-27T22:58:32.325Z,81.26
2022-09-27T23:00:59.891Z,81.37
2022-09-27T23:03:26.736Z,81.60
2022-09-27T23:05:53.483Z,81.78
2022-09-27T23:08:20.340Z,81.74
2022-09-27T23:10:47.088Z,81.60
2022-09-27T23:13:13.829Z,81.69
2022-09-27T23:15:40.635Z,81.62
2022-09-27T23:18:07.420Z,81.61
2022-09-27T23:20:34.595Z,81.63
2022-09-27T23:23:01.831Z,81.72
2022-09-27T23:25:28.638Z,81.70
2022-09-27T23:27:55.403Z,81.62
2022-09-27T23:30:27.067Z,81.77
2022-09-27T23:32:55.673Z,81.70
2022-09-27T23:35:23.526Z,81.65
2022-09-27T23:37:54.450Z,81.57
2022-09-27T23:40:21.275Z,81.53
2022-09-27T23:42:48.099Z,81.48
2022-09-27T23:45:16.462Z,81.51
2022-09-27T23:47:43.285Z,81.27
2022-09-27T23:50:10.102Z,81.19
2022-09-27T23:52:36.893Z,81.05
2022-09-27T23:55:04.106Z,81.00
2022-09-27T23:57:31.057Z,81.20
2022-09-27T23:59:57.850Z,80.94
